Time;durP1;ratioP1;P1;durP2;ratioP2;P2;SDS_P1;SDS_P2;PMS_P1;PMS_P2;Temp;Humidity;BMP_temperature;BMP_pressure;BME280_temperature;BME280_humidity;BME280_pressure;Samples;Min_cycle;Max_cycle;Signal;HPM_P1;HPM_P2
2022/10/25 00:02:13;;;;;;;2.97;1.90;;;13.00;99.90;;;;;;7377255;19;20337;-79
2022/10/25 00:04:38;;;;;;;2.08;1.88;;;13.00;99.90;;;;;;7379183;19;20330;-79
2022/10/25 00:07:04;;;;;;;2.08;1.85;;;13.00;99.90;;;;;;7377997;19;20321;-79
2022/10/25 00:09:30;;;;;;;2.35;1.70;;;13.00;99.90;;;;;;7379092;19;20308;-79
2022/10/25 00:11:55;;;;;;;2.20;1.70;;;13.00;99.90;;;;;;7377457;19;20725;-79
2022/10/25 00:14:21;;;;;;;3.10;1.92;;;13.00;99.90;;;;;;7379626;19;20418;-79
2022/10/25 00:16:46;;;;;;;2.72;1.90;;;12.90;99.90;;;;;;7378295;19;20309;-79
2022/10/25 00:19:13;;;;;;;2.73;1.70;;;12.90;99.90;;;;;;7378569;19;20328;-79
2022/10/25 00:24:18;;;;;;;4.20;2.22;;;13.00;99.90;;;;;;7367877;19;20336;-75
2022/10/25 00:26:43;;;;;;;2.40;2.10;;;12.90;99.90;;;;;;7351765;19;20321;-74
2022/10/25 00:29:09;;;;;;;2.40;1.97;;;12.90;99.90;;;;;;7362995;19;21027;-73
2022/10/25 00:31:35;;;;;;;2.00;1.80;;;12.90;99.90;;;;;;7361211;19;21326;-73
2022/10/25 00:34:01;;;;;;;3.67;2.13;;;12.90;99.90;;;;;;7364116;19;20349;-74
2022/10/25 00:36:27;;;;;;;3.50;2.20;;;12.90;99.90;;;;;;7364315;19;20353;-74
2022/10/25 00:38:53;;;;;;;2.83;2.13;;;12.90;99.90;;;;;;7361338;19;20862;-74
2022/10/25 00:41:23;;;;;;;2.55;1.88;;;12.90;99.90;;;;;;7362575;19;20336;-76
2022/10/25 00:43:53;;;;;;;2.40;2.00;;;12.90;99.90;;;;;;7362516;19;20556;-73
2022/10/25 00:46:19;;;;;;;4.25;2.00;;;12.90;99.90;;;;;;7362054;19;21446;-73
2022/10/25 00:49:04;;;;;;;3.17;2.13;;;12.90;99.90;;;;;;7362357;19;20370;-73
2022/10/25 00:51:32;;;;;;;2.38;1.92;;;12.90;99.90;;;;;;7258283;19;2019916;-74
2022/10/25 00:53:57;;;;;;;3.30;2.05;;;12.90;99.90;;;;;;7362585;19;20312;-73
2022/10/25 00:56:26;;;;;;;1.83;1.67;;;13.00;99.90;;;;;;7363104;19;20360;-74
2022/10/25 00:58:53;;;;;;;3.23;2.03;;;13.00;99.90;;;;;;7358785;19;20850;-74
2022/10/25 01:01:19;;;;;;;2.63;2.10;;;13.00;99.90;;;;;;7361967;19;21324;-73
2022/10/25 01:03:45;;;;;;;4.43;2.00;;;12.90;99.90;;;;;;7360720;19;20313;-74
2022/10/25 01:06:17;;;;;;;2.72;1.85;;;12.90;99.90;;;;;;7362368;19;20333;-74
2022/10/25 01:08:43;;;;;;;3.83;2.00;;;12.90;99.90;;;;;;7362810;19;20332;-74
2022/10/25 01:11:08;;;;;;;3.77;1.80;;;12.90;99.90;;;;;;7367491;19;20333;-74
2022/10/25 01:13:34;;;;;;;2.03;1.63;;;12.90;99.90;;;;;;7367765;19;20882;-76
2022/10/25 01:16:03;;;;;;;4.80;1.90;;;12.90;99.90;;;;;;7369961;19;20325;-76
2022/10/25 01:18:42;;;;;;;3.05;1.90;;;12.90;99.90;;;;;;7368015;19;20352;-75
2022/10/25 01:21:28;;;;;;;1.88;1.60;;;12.90;99.90;;;;;;7369385;19;20341;-75
2022/10/25 01:24:06;;;;;;;4.85;2.03;;;13.00;99.90;;;;;;7265243;19;2016241;-74
2022/10/25 01:27:08;;;;;;;2.75;1.77;;;13.00;99.90;;;;;;7368393;19;20349;-74
2022/10/25 01:29:52;;;;;;;3.30;1.70;;;13.00;99.90;;;;;;7265701;19;2004503;-74
2022/10/25 01:32:22;;;;;;;2.53;1.95;;;13.10;99.90;;;;;;7367160;19;20316;-74
2022/10/25 01:35:14;;;;;;;3.80;1.90;;;13.10;99.90;;;;;;7368579;19;21325;-73
2022/10/25 01:38:11;;;;;;;4.13;2.00;;;13.20;99.90;;;;;;7264260;19;2004228;-73
2022/10/25 01:40:48;;;;;;;3.17;1.77;;;13.20;99.90;;;;;;7263493;19;2019975;-74
2022/10/25 01:43:17;;;;;;;3.03;2.10;;;13.20;99.90;;;;;;7365828;19;20865;-74
2022/10/25 01:45:46;;;;;;;2.58;1.77;;;13.20;99.90;;;;;;7370323;19;20349;-73
2022/10/25 01:48:14;;;;;;;2.47;1.77;;;13.20;99.90;;;;;;7367159;19;20855;-74
2022/10/25 01:50:41;;;;;;;2.40;1.90;;;13.30;99.90;;;;;;7366957;19;20336;-74
2022/10/25 01:53:06;;;;;;;2.97;2.10;;;13.30;99.90;;;;;;7366705;19;20361;-74
2022/10/25 01:55:53;;;;;;;2.67;1.98;;;13.30;99.90;;;;;;7369392;19;20344;-76
2022/10/25 01:58:44;;;;;;;2.50;1.90;;;13.30;99.90;;;;;;7364622;19;20529;-75
2022/10/25 02:01:20;;;;;;;2.90;2.10;;;13.30;99.90;;;;;;7265887;19;2004691;-75
2022/10/25 02:03:54;;;;;;;3.13;1.90;;;13.30;99.90;;;;;;7364798;19;20328;-74
2022/10/25 02:06:33;;;;;;;4.95;1.90;;;13.30;99.90;;;;;;7367300;19;21819;-75
2022/10/25 02:09:06;;;;;;;5.65;2.08;;;13.30;99.90;;;;;;7262939;19;2020094;-74
2022/10/25 02:11:31;;;;;;;1.95;1.73;;;13.40;99.90;;;;;;7365354;19;20357;-74
2022/10/25 02:14:12;;;;;;;3.05;1.88;;;13.30;99.90;;;;;;7367178;19;21350;-75
2022/10/25 02:16:56;;;;;;;2.60;1.90;;;13.30;99.90;;;;;;7369048;19;20436;-76
2022/10/25 02:19:34;;;;;;;4.78;1.92;;;13.30;99.90;;;;;;7262546;19;2018917;-76
2022/10/25 02:22:00;;;;;;;1.90;1.80;;;13.30;99.90;;;;;;7364349;19;20357;-74
2022/10/25 02:24:26;;;;;;;2.00;1.80;;;13.30;99.90;;;;;;7367488;19;20383;-75
2022/10/25 02:26:51;;;;;;;2.20;1.83;;;13.30;99.90;;;;;;7364093;19;20325;-75
2022/10/25 02:29:17;;;;;;;4.70;1.80;;;13.30;99.90;;;;;;7365884;19;20415;-74
2022/10/25 02:31:42;;;;;;;2.88;1.98;;;13.30;99.90;;;;;;7365333;19;20312;-76
2022/10/25 02:34:08;;;;;;;3.73;1.83;;;13.40;99.90;;;;;;7366288;19;20340;-75
2022/10/25 02:36:34;;;;;;;5.18;2.25;;;13.40;99.90;;;;;;7368184;19;20349;-75
2022/10/25 02:38:59;;;;;;;2.78;1.92;;;13.40;99.90;;;;;;7365402;19;20361;-73
2022/10/25 02:41:25;;;;;;;1.83;1.70;;;13.40;99.90;;;;;;7368897;19;20352;-74
2022/10/25 02:43:50;;;;;;;3.38;1.95;;;13.40;99.90;;;;;;7369920;19;20321;-73
2022/10/25 02:46:20;;;;;;;3.30;1.53;;;13.40;99.90;;;;;;7369552;19;20798;-74
2022/10/25 02:48:45;;;;;;;3.28;1.92;;;13.40;99.90;;;;;;7365479;19;20320;-74
2022/10/25 02:51:11;;;;;;;2.22;1.80;;;13.50;99.90;;;;;;7366421;19;20332;-74
2022/10/25 02:53:37;;;;;;;1.67;1.58;;;13.50;99.90;;;;;;7366304;19;20691;-74
2022/10/25 02:56:10;;;;;;;5.68;1.73;;;13.50;99.90;;;;;;7366278;19;20324;-76
2022/10/25 02:58:37;;;;;;;2.70;1.73;;;13.50;99.90;;;;;;7363938;19;20344;-76
2022/10/25 03:01:03;;;;;;;3.72;1.88;;;13.50;99.90;;;;;;7367483;19;20333;-74
2022/10/25 03:03:29;;;;;;;3.53;1.83;;;13.50;99.90;;;;;;7363766;19;20360;-75
2022/10/25 03:05:54;;;;;;;2.00;1.70;;;13.50;99.90;;;;;;7370144;19;20344;-74
2022/10/25 03:08:20;;;;;;;3.80;1.85;;;13.50;99.90;;;;;;7367290;19;20354;-76
2022/10/25 03:10:46;;;;;;;2.20;1.53;;;13.50;99.90;;;;;;7365776;19;20320;-76
2022/10/25 03:13:11;;;;;;;2.78;1.90;;;13.50;99.90;;;;;;7366278;19;20324;-75
2022/10/25 03:15:37;;;;;;;2.67;1.67;;;13.50;99.90;;;;;;7368111;19;20448;-74
2022/10/25 03:18:02;;;;;;;3.37;1.77;;;13.50;99.90;;;;;;7365611;19;20714;-76
2022/10/25 03:20:28;;;;;;;2.63;1.90;;;13.50;99.90;;;;;;7366991;19;20348;-73
2022/10/25 03:22:53;;;;;;;1.83;1.63;;;13.50;99.90;;;;;;7364835;19;20328;-73
2022/10/25 03:25:19;;;;;;;2.53;1.60;;;13.50;99.90;;;;;;7367459;19;20348;-73
2022/10/25 03:27:44;;;;;;;3.53;1.70;;;13.50;99.90;;;;;;7365499;19;20319;-73
2022/10/25 03:30:12;;;;;;;2.47;1.80;;;13.50;99.90;;;;;;7364230;19;20326;-73
2022/10/25 03:32:37;;;;;;;3.05;1.70;;;13.50;99.90;;;;;;7362444;19;21046;-74
2022/10/25 03:35:03;;;;;;;1.87;1.67;;;13.50;99.90;;;;;;7367458;19;20718;-74
2022/10/25 03:37:29;;;;;;;3.10;1.80;;;13.50;99.90;;;;;;7364645;19;20340;-74
2022/10/25 03:39:55;;;;;;;1.70;1.60;;;13.40;99.90;;;;;;7365331;19;21068;-76
2022/10/25 03:42:20;;;;;;;2.78;1.80;;;13.40;99.90;;;;;;7363542;19;20352;-73
2022/10/25 03:44:46;;;;;;;6.75;2.00;;;13.40;99.90;;;;;;7366713;19;20320;-73
2022/10/25 03:47:11;;;;;;;1.97;1.57;;;13.40;99.90;;;;;;7363350;19;20317;-74
2022/10/25 03:49:37;;;;;;;4.68;4.15;;;13.40;99.90;;;;;;7362104;19;20352;-74
2022/10/25 03:52:04;;;;;;;5.03;2.60;;;13.40;99.90;;;;;;7362898;19;21167;-73
2022/10/25 03:54:30;;;;;;;1.85;1.70;;;13.40;99.90;;;;;;7364816;19;20438;-73
2022/10/25 03:56:56;;;;;;;2.55;2.05;;;13.40;99.90;;;;;;7363133;19;20846;-73
2022/10/25 03:59:21;;;;;;;1.97;1.60;;;13.40;99.90;;;;;;7362812;19;20345;-73
2022/10/25 04:01:47;;;;;;;3.17;2.00;;;13.40;99.90;;;;;;7358084;19;20336;-73
2022/10/25 04:04:12;;;;;;;2.42;1.83;;;13.40;99.90;;;;;;7364887;19;20341;-74
2022/10/25 04:06:38;;;;;;;5.90;2.10;;;13.40;99.90;;;;;;7363810;19;20424;-77
2022/10/25 04:09:04;;;;;;;5.03;1.87;;;13.30;99.90;;;;;;7361078;19;20336;-77
2022/10/25 04:11:29;;;;;;;2.08;1.73;;;13.40;99.90;;;;;;7363416;19;20355;-76
2022/10/25 04:13:55;;;;;;;2.60;1.73;;;13.40;99.90;;;;;;7362104;19;21237;-77
2022/10/25 04:16:22;;;;;;;4.50;1.93;;;13.30;99.90;;;;;;7363447;19;20333;-74
2022/10/25 04:18:49;;;;;;;3.10;1.85;;;13.20;99.90;;;;;;7355675;19;20321;-74
2022/10/25 04:21:14;;;;;;;2.60;1.70;;;13.20;99.90;;;;;;7359015;19;20325;-73
2022/10/25 04:23:40;;;;;;;2.57;1.70;;;13.20;99.90;;;;;;7360747;19;21019;-73
2022/10/25 04:26:05;;;;;;;2.63;1.80;;;13.20;99.90;;;;;;7362288;19;20324;-74
2022/10/25 04:28:31;;;;;;;2.53;1.73;;;13.20;99.90;;;;;;7360723;19;20408;-74
2022/10/25 04:30:57;;;;;;;1.83;1.60;;;13.20;99.90;;;;;;7363705;19;20332;-74
2022/10/25 04:33:22;;;;;;;3.17;1.65;;;13.20;99.90;;;;;;7368788;19;20684;-76
2022/10/25 04:35:55;;;;;;;2.00;1.80;;;13.20;99.90;;;;;;7378008;19;20396;-75
2022/10/25 04:38:21;;;;;;;4.23;1.90;;;13.10;99.90;;;;;;7370933;19;20337;-76
2022/10/25 04:40:53;;;;;;;2.20;1.50;;;13.10;99.90;;;;;;7372090;19;20404;-74
2022/10/25 04:43:19;;;;;;;2.53;1.40;;;13.10;99.90;;;;;;7372037;19;20324;-76
2022/10/25 04:45:45;;;;;;;3.40;1.70;;;13.10;99.90;;;;;;7376137;19;20331;-77
2022/10/25 04:48:10;;;;;;;3.83;3.23;;;13.10;99.90;;;;;;7364692;19;20917;-73
2022/10/25 04:50:36;;;;;;;1.50;1.40;;;13.00;99.90;;;;;;7362736;19;20355;-73
2022/10/25 04:53:02;;;;;;;3.37;1.60;;;12.90;99.90;;;;;;7362076;19;20320;-73
2022/10/25 04:55:28;;;;;;;2.20;1.55;;;12.90;99.90;;;;;;7362506;19;20862;-73
2022/10/25 04:57:53;;;;;;;1.70;1.52;;;12.80;99.90;;;;;;7361807;19;20335;-73
2022/10/25 05:00:19;;;;;;;3.30;1.40;;;12.80;99.90;;;;;;7364428;19;20738;-73
2022/10/25 05:02:44;;;;;;;1.37;1.27;;;12.80;99.90;;;;;;7372810;19;20408;-75
2022/10/25 05:05:10;;;;;;;1.63;1.40;;;12.70;99.90;;;;;;7376251;19;20332;-76
2022/10/25 05:07:36;;;;;;;1.70;1.60;;;12.70;99.90;;;;;;7372796;19;20409;-77
2022/10/25 05:10:01;;;;;;;1.50;1.27;;;12.70;99.90;;;;;;7383575;19;20332;-75
2022/10/25 05:12:27;;;;;;;2.05;1.77;;;12.70;99.90;;;;;;7378445;19;20328;-75
2022/10/25 05:14:52;;;;;;;2.20;1.60;;;12.70;99.90;;;;;;7378937;19;20383;-75
2022/10/25 05:17:18;;;;;;;2.07;1.87;;;12.70;99.90;;;;;;7375271;19;20678;-77
2022/10/25 05:19:43;;;;;;;3.05;1.83;;;12.60;99.90;;;;;;7374284;19;20324;-75
2022/10/25 05:22:09;;;;;;;1.95;1.75;;;12.60;99.90;;;;;;7375139;19;20328;-76
2022/10/25 05:24:34;;;;;;;3.07;2.10;;;12.50;99.90;;;;;;7382978;19;20312;-75
2022/10/25 05:27:00;;;;;;;2.40;1.80;;;12.50;99.90;;;;;;7390501;19;20305;-75
2022/10/25 05:31:53;;;;;;;5.72;4.28;;;12.50;99.90;;;;;;7362500;19;20439;-75
2022/10/25 05:34:18;;;;;;;4.30;3.80;;;12.50;99.90;;;;;;7361556;19;20405;-75
2022/10/25 05:36:44;;;;;;;4.20;2.47;;;12.40;99.90;;;;;;7360703;19;20337;-75
2022/10/25 05:39:09;;;;;;;5.00;2.00;;;12.40;99.90;;;;;;7359825;19;20340;-74
2022/10/25 05:41:35;;;;;;;2.47;1.90;;;12.40;99.90;;;;;;7363107;19;20377;-74
2022/10/25 05:44:00;;;;;;;2.07;1.80;;;12.40;99.90;;;;;;7368005;19;20339;-76
2022/10/25 05:56:09;;;;;;;4.97;2.10;;;12.30;99.90;;;;;;7348542;19;20432;-78
2022/10/25 05:58:35;;;;;;;3.50;1.60;;;12.30;99.90;;;;;;7347022;19;20804;-78
2022/10/25 06:01:00;;;;;;;3.87;2.07;;;12.30;99.90;;;;;;7349936;19;20344;-79
2022/10/25 06:03:26;;;;;;;3.67;2.30;;;12.30;99.90;;;;;;7350307;19;20361;-78
2022/10/25 06:05:51;;;;;;;2.83;2.10;;;12.30;99.90;;;;;;7357385;19;20337;-78
2022/10/25 06:08:17;;;;;;;3.20;1.98;;;12.30;99.90;;;;;;7353277;19;20400;-79
2022/10/25 06:14:12;;;;;;;2.30;2.00;;;12.30;99.90;;;;;;7401976;19;20336;-78
2022/10/25 06:16:37;;;;;;;2.87;1.70;;;12.30;99.90;;;;;;7370055;19;20341;-80
2022/10/25 06:19:03;;;;;;;6.20;2.00;;;12.30;99.90;;;;;;7371610;19;20329;-78
2022/10/25 06:21:28;;;;;;;4.60;1.90;;;12.40;99.90;;;;;;7370489;19;20476;-80
2022/10/25 06:23:54;;;;;;;1.80;1.70;;;12.40;99.90;;;;;;7369836;19;20324;-81
2022/10/25 06:26:25;;;;;;;3.58;1.98;;;12.40;99.90;;;;;;7373952;19;20316;-78
2022/10/25 06:28:52;;;;;;;3.38;1.80;;;12.50;99.90;;;;;;7372713;19;20300;-80
2022/10/25 06:31:18;;;;;;;2.90;1.88;;;12.60;99.90;;;;;;7372960;19;20440;-79
2022/10/25 06:33:43;;;;;;;2.60;1.67;;;12.60;99.90;;;;;;7369471;19;20823;-78
2022/10/25 06:36:15;;;;;;;2.00;1.77;;;12.60;99.90;;;;;;7372123;19;20309;-80
2022/10/25 06:38:41;;;;;;;2.03;1.70;;;12.70;99.90;;;;;;7371632;19;20353;-78
2022/10/25 06:41:10;;;;;;;1.77;1.60;;;12.70;99.90;;;;;;7371844;19;20347;-79
2022/10/25 06:43:37;;;;;;;2.10;1.90;;;12.80;99.90;;;;;;7371939;19;20337;-78
2022/10/25 06:46:11;;;;;;;2.97;2.20;;;12.90;99.90;;;;;;7370840;19;20336;-78
2022/10/25 06:48:37;;;;;;;6.32;2.10;;;13.00;99.90;;;;;;7370066;19;20352;-78
2022/10/25 06:51:03;;;;;;;2.00;1.80;;;13.00;99.90;;;;;;7369987;19;21002;-78
2022/10/25 06:53:29;;;;;;;3.10;1.80;;;13.10;99.90;;;;;;7368486;19;20341;-76
2022/10/25 06:55:59;;;;;;;2.15;1.75;;;13.20;99.90;;;;;;7369510;19;20313;-78
2022/10/25 06:58:24;;;;;;;2.00;1.73;;;13.20;99.90;;;;;;7368386;19;20332;-76
2022/10/25 07:00:50;;;;;;;4.22;2.03;;;13.30;99.90;;;;;;7372959;19;20335;-78
2022/10/25 07:03:15;;;;;;;1.70;1.60;;;13.40;99.90;;;;;;7372987;19;20326;-78
2022/10/25 07:05:41;;;;;;;2.23;1.80;;;13.40;99.90;;;;;;7376751;19;20316;-79
2022/10/25 07:08:07;;;;;;;1.83;1.67;;;13.40;99.90;;;;;;7376137;19;20392;-79
2022/10/25 07:10:32;;;;;;;1.93;1.60;;;13.50;99.90;;;;;;7378049;19;20311;-78
2022/10/25 07:12:58;;;;;;;2.20;1.67;;;13.50;99.90;;;;;;7376246;19;20316;-78
2022/10/25 07:15:23;;;;;;;2.25;1.60;;;13.60;99.90;;;;;;7378956;19;20949;-78
2022/10/25 07:17:49;;;;;;;2.17;1.80;;;13.60;99.90;;;;;;7379877;19;20293;-78
2022/10/25 07:20:15;;;;;;;2.78;1.45;;;13.70;99.90;;;;;;7380307;19;20335;-79
2022/10/25 07:22:40;;;;;;;1.70;1.60;;;13.80;99.90;;;;;;7376433;19;20341;-72
2022/10/25 07:25:06;;;;;;;2.87;1.83;;;13.80;99.90;;;;;;7368648;19;20324;-78
2022/10/25 07:27:32;;;;;;;1.55;1.45;;;13.90;99.90;;;;;;7370756;19;21216;-77
2022/10/25 07:29:57;;;;;;;4.53;1.57;;;14.00;99.90;;;;;;7371728;19;20345;-75
2022/10/25 07:32:23;;;;;;;3.40;1.77;;;14.00;99.90;;;;;;7371043;19;20688;-75
2022/10/25 07:34:49;;;;;;;1.60;1.43;;;14.10;99.90;;;;;;7372196;19;20316;-76
2022/10/25 07:37:14;;;;;;;2.50;1.60;;;14.20;99.90;;;;;;7372541;19;20331;-75
2022/10/25 07:39:40;;;;;;;1.77;1.63;;;14.30;99.90;;;;;;7370398;19;20356;-76
2022/10/25 07:42:06;;;;;;;1.77;1.67;;;14.30;99.90;;;;;;7368148;19;20355;-76
2022/10/25 07:44:31;;;;;;;1.70;1.57;;;14.40;99.90;;;;;;7371709;19;20349;-74
2022/10/25 07:46:57;;;;;;;2.53;1.43;;;14.50;99.90;;;;;;7370541;19;20317;-75
2022/10/25 07:49:22;;;;;;;2.20;1.45;;;14.50;99.90;;;;;;7366480;19;20352;-75
2022/10/25 07:51:48;;;;;;;1.50;1.30;;;14.50;99.90;;;;;;7368948;19;21292;-76
2022/10/25 07:54:14;;;;;;;2.60;1.48;;;14.60;99.90;;;;;;7364886;19;20317;-73
2022/10/25 07:56:39;;;;;;;5.63;1.40;;;14.70;99.90;;;;;;7364663;19;20352;-73
2022/10/25 07:59:05;;;;;;;2.53;1.53;;;14.70;99.90;;;;;;7364536;19;20332;-73
2022/10/25 08:01:30;;;;;;;1.58;1.48;;;14.70;99.90;;;;;;7365363;19;20345;-74
2022/10/25 08:03:56;;;;;;;2.50;1.45;;;14.80;99.90;;;;;;7363104;19;20316;-74
2022/10/25 08:06:22;;;;;;;3.03;1.53;;;14.80;99.90;;;;;;7367076;19;21417;-74
2022/10/25 08:08:48;;;;;;;3.13;1.92;;;14.90;99.90;;;;;;7362456;19;20357;-74
2022/10/25 08:11:14;;;;;;;2.50;1.55;;;14.90;99.90;;;;;;7362881;19;20375;-73
2022/10/25 08:13:39;;;;;;;3.10;1.60;;;15.00;99.90;;;;;;7361586;19;20349;-72
2022/10/25 08:16:05;;;;;;;3.07;1.50;;;14.90;99.90;;;;;;7362670;19;20356;-73
2022/10/25 08:18:31;;;;;;;2.10;1.45;;;14.90;99.90;;;;;;7358614;19;20384;-73
2022/10/25 08:20:56;;;;;;;1.80;1.40;;;14.80;99.90;;;;;;7362045;19;20320;-72
2022/10/25 08:23:24;;;;;;;3.15;1.60;;;14.80;99.90;;;;;;7360738;19;21404;-74
2022/10/25 08:25:49;;;;;;;2.65;1.13;;;14.80;99.90;;;;;;7364407;19;20293;-74
2022/10/25 08:28:15;;;;;;;3.47;1.50;;;14.80;99.90;;;;;;7362001;19;20321;-75
2022/10/25 08:30:40;;;;;;;2.90;1.30;;;14.80;99.90;;;;;;7359698;19;20439;-75
2022/10/25 08:33:06;;;;;;;2.80;1.38;;;14.80;99.90;;;;;;7361993;19;20321;-74
2022/10/25 08:35:32;;;;;;;2.47;1.60;;;14.90;99.90;;;;;;7366870;19;20423;-72
2022/10/25 08:38:01;;;;;;;4.72;1.38;;;14.90;99.90;;;;;;7360636;19;20411;-72
2022/10/25 08:40:55;;;;;;;1.58;1.30;;;14.90;99.90;;;;;;7361825;19;20340;-72
2022/10/25 08:43:57;;;;;;;3.22;1.48;;;15.00;99.90;;;;;;7358289;19;20863;-72
2022/10/25 08:46:26;;;;;;;1.65;1.20;;;15.10;99.90;;;;;;7161404;19;2004509;-72
2022/10/25 08:48:59;;;;;;;4.88;1.45;;;15.10;99.90;;;;;;7360518;19;20341;-73
2022/10/25 08:51:28;;;;;;;3.22;1.40;;;15.10;99.90;;;;;;7260511;19;2020687;-73
2022/10/25 08:53:55;;;;;;;3.22;1.60;;;15.10;99.90;;;;;;7360908;19;20368;-75
2022/10/25 08:56:21;;;;;;;3.60;1.45;;;15.20;99.90;;;;;;7362942;19;20360;-73
2022/10/25 08:58:53;;;;;;;2.67;1.40;;;15.20;99.90;;;;;;7362050;19;20333;-75
2022/10/25 09:01:37;;;;;;;2.85;1.13;;;15.30;99.90;;;;;;7361327;19;20320;-75
2022/10/25 09:04:03;;;;;;;3.03;1.33;;;15.30;99.90;;;;;;7259421;19;2019911;-75
2022/10/25 09:06:39;;;;;;;1.30;1.20;;;15.30;99.90;;;;;;7362121;19;20355;-75
2022/10/25 09:09:36;;;;;;;6.82;1.30;;;15.30;99.90;;;;;;7361361;19;20486;-74
2022/10/25 09:12:12;;;;;;;1.90;1.23;;;15.40;99.90;;;;;;7260502;19;2005148;-73
2022/10/25 09:15:01;;;;;;;1.20;1.10;;;15.70;99.90;;;;;;7362523;19;20407;-73
2022/10/25 09:17:37;;;;;;;3.97;1.42;;;15.80;99.90;;;;;;7258961;19;2004792;-73
2022/10/25 09:20:40;;;;;;;2.70;1.30;;;15.90;99.90;;;;;;7360967;19;20339;-72
2022/10/25 09:23:13;;;;;;;1.73;1.42;;;16.00;99.90;;;;;;7257779;19;2004506;-72
2022/10/25 09:26:00;;;;;;;2.03;1.17;;;15.80;99.90;;;;;;7361371;19;20343;-72
2022/10/25 09:29:01;;;;;;;1.70;1.30;;;15.80;99.90;;;;;;7259125;19;2004432;-73
2022/10/25 09:31:27;;;;;;;2.33;1.20;;;15.60;99.90;;;;;;7266295;19;2004498;-73
2022/10/25 09:33:57;;;;;;;1.53;1.20;;;15.60;99.90;;;;;;7371367;19;20324;-74
2022/10/25 09:36:22;;;;;;;3.25;1.40;;;15.50;99.90;;;;;;7370663;19;20340;-73
2022/10/25 09:38:51;;;;;;;2.43;1.40;;;15.50;99.90;;;;;;7365564;19;20876;-74
2022/10/25 09:41:22;;;;;;;3.20;1.30;;;15.50;99.90;;;;;;7368761;19;20404;-73
2022/10/25 09:43:57;;;;;;;3.75;1.23;;;15.50;99.90;;;;;;7367278;19;21683;-73
2022/10/25 09:46:27;;;;;;;2.70;1.20;;;15.60;99.90;;;;;;7368886;19;21103;-73
2022/10/25 09:48:58;;;;;;;2.33;1.50;;;15.70;99.90;;;;;;7366598;19;20427;-74
2022/10/25 09:51:59;;;;;;;2.83;1.50;;;15.80;99.90;;;;;;7266937;19;2004540;-75
2022/10/25 09:54:39;;;;;;;2.90;1.40;;;16.00;99.90;;;;;;7267492;19;2004922;-74
2022/10/25 09:57:04;;;;;;;2.45;1.33;;;16.00;99.90;;;;;;7368620;19;20347;-73
2022/10/25 09:59:30;;;;;;;2.67;1.30;;;16.00;99.90;;;;;;7366781;19;20929;-73
2022/10/25 10:01:55;;;;;;;1.33;1.17;;;16.00;99.90;;;;;;7365681;19;20337;-73
2022/10/25 10:04:36;;;;;;;1.57;1.30;;;16.10;99.90;;;;;;7368906;19;20345;-72
2022/10/25 10:07:06;;;;;;;1.38;1.20;;;16.10;99.90;;;;;;7263859;19;2004306;-72
2022/10/25 10:09:31;;;;;;;1.70;1.30;;;16.10;99.90;;;;;;7365819;19;20381;-72
2022/10/25 10:11:58;;;;;;;4.10;1.20;;;16.30;99.90;;;;;;7364966;19;20341;-72
2022/10/25 10:14:37;;;;;;;3.40;1.40;;;16.40;99.90;;;;;;7368255;19;20325;-73
2022/10/25 10:17:02;;;;;;;2.47;1.23;;;16.40;99.90;;;;;;7365603;19;20316;-74
2022/10/25 10:19:28;;;;;;;3.35;1.23;;;16.40;99.90;;;;;;7366476;19;20355;-73
2022/10/25 10:22:01;;;;;;;1.15;1.08;;;16.50;99.90;;;;;;7365695;19;20344;-74
2022/10/25 10:24:37;;;;;;;2.07;1.30;;;16.50;99.90;;;;;;7367103;19;20332;-73
2022/10/25 10:27:07;;;;;;;2.80;1.30;;;16.60;99.90;;;;;;7365901;19;20338;-72
2022/10/25 10:29:36;;;;;;;2.15;1.25;;;16.60;99.90;;;;;;7366951;19;20440;-73
2022/10/25 10:32:05;;;;;;;2.15;1.27;;;16.60;99.90;;;;;;7367751;19;20317;-72
2022/10/25 10:34:42;;;;;;;1.25;1.00;;;16.60;99.90;;;;;;7366821;19;20349;-72
2022/10/25 10:37:21;;;;;;;2.90;1.13;;;16.60;99.90;;;;;;7365357;19;20649;-72
2022/10/25 10:39:48;;;;;;;1.40;1.25;;;16.60;99.90;;;;;;7366561;19;20372;-72
2022/10/25 10:42:35;;;;;;;1.58;1.00;;;16.60;99.90;;;;;;7356068;19;20337;-72
2022/10/25 10:45:07;;;;;;;2.03;1.15;;;16.60;99.90;;;;;;7263809;19;2004327;-74
2022/10/25 10:47:49;;;;;;;2.25;1.10;;;16.60;99.90;;;;;;7366669;19;20356;-74
2022/10/25 10:50:24;;;;;;;2.13;1.40;;;16.60;99.90;;;;;;7365224;19;20313;-74
2022/10/25 10:52:52;;;;;;;1.88;1.20;;;16.50;99.90;;;;;;7364676;19;20320;-73
2022/10/25 10:55:24;;;;;;;1.67;1.20;;;16.50;99.90;;;;;;7367638;19;20449;-73
2022/10/25 10:57:51;;;;;;;1.52;1.20;;;16.50;99.90;;;;;;7364050;19;20317;-74
2022/10/25 11:00:21;;;;;;;1.67;1.20;;;16.50;99.90;;;;;;7364325;19;20319;-74
2022/10/25 11:02:47;;;;;;;1.97;1.27;;;16.60;99.90;;;;;;7365877;19;20332;-73
2022/10/25 11:05:28;;;;;;;2.67;1.38;;;16.70;99.90;;;;;;7366439;19;21041;-74
2022/10/25 11:07:58;;;;;;;2.63;1.42;;;16.80;99.90;;;;;;7261593;19;2004419;-73
2022/10/25 11:10:36;;;;;;;3.13;1.52;;;17.00;99.90;;;;;;7363093;19;20349;-73
2022/10/25 11:13:15;;;;;;;1.70;1.38;;;17.00;99.90;;;;;;7365936;19;20323;-74
2022/10/25 11:16:13;;;;;;;2.85;1.33;;;17.00;99.90;;;;;;7365823;19;20353;-74
2022/10/25 11:18:47;;;;;;;2.67;1.38;;;16.90;99.90;;;;;;7260604;19;2004451;-75
2022/10/25 11:21:32;;;;;;;1.90;1.08;;;16.70;99.90;;;;;;7362899;19;20348;-73
2022/10/25 11:24:34;;;;;;;2.67;1.40;;;16.70;99.90;;;;;;7262136;19;2019951;-74
2022/10/25 11:27:24;;;;;;;2.17;1.45;;;16.80;99.90;;;;;;7262970;19;2004371;-74
2022/10/25 11:29:55;;;;;;;2.17;1.20;;;16.90;99.90;;;;;;7368467;19;20357;-74
2022/10/25 11:33:03;;;;;;;4.13;1.10;;;16.90;99.90;;;;;;7361715;19;20452;-73
2022/10/25 11:36:01;;;;;;;1.60;1.15;;;16.80;99.90;;;;;;7160517;19;2004383;-73
2022/10/25 11:38:51;;;;;;;3.65;1.40;;;16.80;99.90;;;;;;7260272;19;2005832;-73
2022/10/25 11:41:49;;;;;;;1.90;1.33;;;16.70;99.90;;;;;;7365507;19;20349;-73
2022/10/25 11:44:29;;;;;;;3.33;1.30;;;16.60;99.90;;;;;;7261805;19;2005080;-72
2022/10/25 11:47:04;;;;;;;3.15;1.17;;;16.70;99.90;;;;;;7259455;19;2004651;-73
2022/10/25 11:49:40;;;;;;;1.70;1.05;;;16.80;99.90;;;;;;7362407;19;21202;-72
2022/10/25 11:52:33;;;;;;;1.52;1.10;;;16.90;99.90;;;;;;7362861;19;20336;-72
2022/10/25 11:55:26;;;;;;;2.13;1.48;;;17.00;99.90;;;;;;7262392;19;2019994;-73
2022/10/25 11:57:55;;;;;;;1.40;1.30;;;17.10;99.90;;;;;;7362067;19;20324;-75
2022/10/25 12:00:37;;;;;;;3.27;1.20;;;17.00;99.90;;;;;;7363084;19;20356;-74
2022/10/25 12:03:09;;;;;;;2.00;1.27;;;16.90;99.90;;;;;;7260394;19;2004395;-74
2022/10/25 12:05:50;;;;;;;2.47;1.38;;;16.90;99.90;;;;;;7363962;19;21028;-73
2022/10/25 12:08:28;;;;;;;2.30;1.30;;;17.00;99.90;;;;;;7361822;19;20320;-73
2022/10/25 12:10:57;;;;;;;1.30;1.10;;;17.30;99.90;;;;;;7363107;19;21000;-73
2022/10/25 12:13:33;;;;;;;2.40;1.00;;;17.40;99.90;;;;;;7360714;19;20447;-76
2022/10/25 12:15:59;;;;;;;1.85;1.20;;;17.20;99.90;;;;;;7262595;19;2004525;-74
2022/10/25 12:18:39;;;;;;;1.58;1.45;;;17.00;99.90;;;;;;7362363;19;20380;-74
2022/10/25 12:21:04;;;;;;;3.72;1.38;;;17.10;99.90;;;;;;7365716;19;20329;-74
2022/10/25 12:23:35;;;;;;;1.50;1.27;;;17.10;99.90;;;;;;7362398;19;20364;-73
2022/10/25 12:26:05;;;;;;;1.73;1.30;;;17.10;99.90;;;;;;7366004;19;20504;-72
2022/10/25 12:28:47;;;;;;;2.75;1.20;;;17.20;99.90;;;;;;7363899;19;20393;-73
2022/10/25 12:31:21;;;;;;;1.73;1.27;;;17.40;99.90;;;;;;7362237;19;20340;-72
2022/10/25 12:33:59;;;;;;;3.05;1.45;;;17.50;99.90;;;;;;7361389;19;20399;-73
2022/10/25 12:36:28;;;;;;;1.45;1.15;;;17.40;99.90;;;;;;7261007;19;2004850;-73
2022/10/25 12:38:54;;;;;;;2.58;1.40;;;17.30;99.90;;;;;;7361052;19;20360;-74
2022/10/25 12:41:40;;;;;;;2.08;1.38;;;17.30;99.90;;;;;;7360652;19;21776;-77
2022/10/25 12:44:28;;;;;;;2.35;1.40;;;17.30;99.90;;;;;;7270068;19;2004230;-81
2022/10/25 12:47:26;;;;;;;3.90;1.60;;;17.50;99.90;;;;;;7380371;19;20376;-82
2022/10/25 12:50:39;;;;;;;1.40;1.20;;;17.60;99.90;;;;;;7280636;19;2004411;-77
2022/10/25 12:53:23;;;;;;;1.20;1.10;;;17.60;99.90;;;;;;7158267;19;2004472;-75
2022/10/25 12:56:25;;;;;;;1.75;1.30;;;17.60;99.90;;;;;;7379550;19;20361;-80
2022/10/25 13:02:01;;;;;;;3.33;1.20;;;17.60;99.90;;;;;;7375887;19;20951;-78
2022/10/25 13:04:41;;;;;;;1.17;1.10;;;17.60;99.90;;;;;;7272822;19;2004557;-78
2022/10/25 13:07:07;;;;;;;3.08;1.50;;;17.60;99.90;;;;;;7374916;19;20316;-78
2022/10/25 13:09:34;;;;;;;2.38;1.30;;;17.50;99.90;;;;;;7375549;19;20839;-78
2022/10/25 13:12:04;;;;;;;1.70;1.30;;;17.40;99.90;;;;;;7372459;19;20738;-78
2022/10/25 13:14:37;;;;;;;2.80;1.23;;;17.20;99.90;;;;;;7374356;19;20313;-79
2022/10/25 13:17:15;;;;;;;2.88;1.40;;;17.10;99.90;;;;;;7371256;19;20321;-77
2022/10/25 13:19:46;;;;;;;4.00;1.47;;;17.00;99.90;;;;;;7375395;19;20783;-77
2022/10/25 13:22:31;;;;;;;3.00;1.50;;;16.90;99.90;;;;;;7380384;19;20822;-77
2022/10/25 13:25:07;;;;;;;4.20;1.50;;;16.70;99.90;;;;;;7279449;19;2004374;-78
2022/10/25 13:27:33;;;;;;;3.28;1.60;;;16.70;99.90;;;;;;7373446;19;20337;-77